Airfield :
LOGIN :

Register | Disclaimer

   EN    FR    IT 

 










Legend :    VFR   Marginal VFR   IFR   Intensive IFR   Very Intensive IFR
Visi :
Ceiling :
>= 8 km
>= 3000ft
5 to 8 km
1000 to 3000 ft
1500m to 5 km
500 to 1000 ft
800 to 1500m
200 to 500 ft
< 800m
< 200 ft
Symbols :   Thunderstorms  Fog  Heavy snow  Heavy precipitations  Wind > 20 kt
SIGMETs :     Misc.  Thunderstorms  Icing  Turbulence  Mountain Waves  Volcanic Ashes







- Airport Elevation : 74 ft
- IATA code : LRH
- Download approach charts


LFBH - La Rochelle Ile de Ré

CURRENT METAR :
  • 210100Z AUTO 18011KT CAVOK 18/15 Q1013 TEMPO 4000 -RA BECMG 26015G25KT

EXPIRED METARs :
  • 210030Z AUTO 17010KT CAVOK 18/15 Q1013 TEMPO 4000 -RA BECMG 26015G25KT
  • 210000Z AUTO 17011KT CAVOK 18/15 Q1013 BECMG 26015G25KT
  • 202330Z AUTO 16011KT 9999 BKN049 17/15 Q1014 BECMG 26015G25KT
  • 202300Z AUTO 17012KT 9999 BKN049 BKN074 17/15 Q1014 BECMG 25015G25KT
  • 202230Z AUTO 16013KT CAVOK 17/14 Q1014 BECMG 25015G25KT

TAF TAF LFBH
Valid from the 21 at 00:00 until the 22 at 00:00 UTC


202300Z 2100/2124 19013KT 9999 BKN040
BECMG 2100/2102 26015G25KT
TEMPO 2102/2106 4000 -RA
TEMPO 2112/2124 26025G35KT 4000 -SHRA SCT030TCU BKN040
ATIS : +33 5 46 00 13 92
No reported NOTAMs for that airfield.



MET'MAP, your aeronautical weather chart ! - Copyright ORBIFLY December 2007 - Disclaimer

ORBIFLY MET'MAP TEAM :

Programming & Development : Alexandra Zaïnal
Concept & Development : Baudouin d'Aumeries
Co-Development & Prog : Marc-Olivier Méhu
Technical & hardware support : Manuel Goepfert

Contact : metmap@orbifly.com




SOURCES & CREDITS :

   NOAA